Time;durP1;ratioP1;P1;durP2;ratioP2;P2;SDS_P1;SDS_P2;PMS_P1;PMS_P2;Temp;Humidity;BMP_temperature;BMP_pressure;BME280_temperature;BME280_humidity;BME280_pressure;Samples;Min_cycle;Max_cycle;Signal;HPM_P1;HPM_P2
2022/07/28 00:02:05;;;;;;;2.13;1.10;;;;;;;;;;5040775;28;20273;-38
2022/07/28 00:04:32;;;;;;;2.58;1.20;;;;;;;;;;5049416;28;20202;-38
2022/07/28 00:06:59;;;;;;;1.42;1.30;;;;;;;;;;5033681;28;20238;-34
2022/07/28 00:09:28;;;;;;;2.35;1.45;;;;;;;;;;5042090;28;20202;-40
2022/07/28 00:11:55;;;;;;;2.53;1.65;;;;;;;;;;5034936;28;20221;-38
2022/07/28 00:14:22;;;;;;;1.70;1.30;;;;;;;;;;5030395;28;20216;-34
2022/07/28 00:16:49;;;;;;;1.45;1.35;;;;;;;;;;5025484;28;20245;-38
2022/07/28 00:19:17;;;;;;;1.95;1.40;;;;;;;;;;5034579;28;20202;-36
2022/07/28 00:21:44;;;;;;;4.22;1.50;;;;;;;;;;5027916;28;20211;-36
2022/07/28 00:24:11;;;;;;;2.80;1.25;;;;;;;;;;5037067;28;20211;-39
2022/07/28 00:26:40;;;;;;;1.70;1.35;;;;;;;;;;5034543;28;20233;-40
2022/07/28 00:29:07;;;;;;;1.27;1.15;;;;;;;;;;5029019;28;20200;-39
2022/07/28 00:31:34;;;;;;;3.40;1.35;;;;;;;;;;5031937;28;20214;-38
2022/07/28 00:34:01;;;;;;;2.42;1.50;;;;;;;;;;5033017;28;20215;-37
2022/07/28 00:36:29;;;;;;;2.40;1.27;;;;;;;;;;5024780;28;20226;-36
2022/07/28 00:38:56;;;;;;;1.10;1.10;;;;;;;;;;5050887;28;20206;-38
2022/07/28 00:41:23;;;;;;;1.77;1.52;;;;;;;;;;5034492;28;20213;-41
2022/07/28 00:43:52;;;;;;;1.77;1.40;;;;;;;;;;5026576;28;20214;-41
2022/07/28 00:46:21;;;;;;;1.70;1.52;;;;;;;;;;5026694;28;20218;-41
2022/07/28 00:48:50;;;;;;;2.35;1.30;;;;;;;;;;5040295;28;20211;-39
2022/07/28 00:51:27;;;;;;;1.70;1.40;;;;;;;;;;5024954;28;20213;-35
2022/07/28 00:53:54;;;;;;;2.08;1.30;;;;;;;;;;5032960;28;20198;-40
2022/07/28 00:56:21;;;;;;;2.22;1.58;;;;;;;;;;5034800;28;20269;-40
2022/07/28 00:58:48;;;;;;;2.60;1.50;;;;;;;;;;5030726;28;20289;-33
2022/07/28 01:01:18;;;;;;;3.15;1.40;;;;;;;;;;5017469;28;20203;-40
2022/07/28 01:03:47;;;;;;;1.97;1.50;;;;;;;;;;5033727;28;20212;-41
2022/07/28 01:06:19;;;;;;;1.45;1.20;;;;;;;;;;5038753;28;20200;-36
2022/07/28 01:08:53;;;;;;;2.83;1.50;;;;;;;;;;5052555;28;20206;-39
2022/07/28 01:11:26;;;;;;;2.08;1.50;;;;;;;;;;5014166;28;20201;-33
2022/07/28 01:13:57;;;;;;;1.70;1.53;;;;;;;;;;5014618;28;20187;-41
2022/07/28 01:16:26;;;;;;;1.50;1.38;;;;;;;;;;5026495;28;20815;-41
2022/07/28 01:18:58;;;;;;;2.23;1.40;;;;;;;;;;5030518;28;20210;-38
2022/07/28 01:21:27;;;;;;;1.37;1.23;;;;;;;;;;5024315;28;20284;-38
2022/07/28 01:24:08;;;;;;;1.57;1.10;;;;;;;;;;5040386;28;20210;-35
2022/07/28 01:26:54;;;;;;;1.57;1.23;;;;;;;;;;5034061;28;20227;-40
2022/07/28 01:29:28;;;;;;;2.50;1.30;;;;;;;;;;5030331;28;20237;-41
2022/07/28 01:32:01;;;;;;;1.85;1.40;;;;;;;;;;5023616;28;20217;-40
2022/07/28 01:34:31;;;;;;;1.90;1.13;;;;;;;;;;5039559;28;20221;-40
2022/07/28 01:37:00;;;;;;;1.73;1.33;;;;;;;;;;5024974;28;20238;-44
2022/07/28 01:39:30;;;;;;;1.30;1.20;;;;;;;;;;5036586;28;20207;-36
2022/07/28 01:41:58;;;;;;;2.07;1.60;;;;;;;;;;5033312;28;20222;-44
2022/07/28 01:44:26;;;;;;;2.85;1.50;;;;;;;;;;5030121;28;20206;-36
2022/07/28 01:46:55;;;;;;;2.30;1.20;;;;;;;;;;5036626;28;20222;-39
2022/07/28 01:49:24;;;;;;;1.53;1.33;;;;;;;;;;5040950;28;20226;-36
2022/07/28 01:51:51;;;;;;;2.90;1.80;;;;;;;;;;5032685;28;20217;-43
2022/07/28 01:54:20;;;;;;;1.70;1.40;;;;;;;;;;5025313;28;20256;-40
2022/07/28 01:56:49;;;;;;;1.83;1.23;;;;;;;;;;5033214;28;20363;-43
2022/07/28 01:59:17;;;;;;;2.30;1.43;;;;;;;;;;5029772;28;20202;-41
2022/07/28 02:01:46;;;;;;;1.70;1.60;;;;;;;;;;5025146;28;20226;-43
2022/07/28 02:04:14;;;;;;;1.50;1.40;;;;;;;;;;5052292;28;20202;-38
2022/07/28 02:06:43;;;;;;;3.30;1.70;;;;;;;;;;5031387;28;20226;-39
2022/07/28 02:09:11;;;;;;;1.63;1.40;;;;;;;;;;5023454;28;20207;-38
2022/07/28 02:11:41;;;;;;;1.60;1.50;;;;;;;;;;5032492;28;20206;-41
2022/07/28 02:14:09;;;;;;;4.60;1.67;;;;;;;;;;5027497;28;20210;-38
2022/07/28 02:16:39;;;;;;;3.57;1.80;;;;;;;;;;5038437;28;20229;-36
2022/07/28 02:19:06;;;;;;;1.90;1.47;;;;;;;;;;5042396;28;20256;-40
2022/07/28 02:21:37;;;;;;;1.73;1.50;;;;;;;;;;5029509;28;20206;-38
2022/07/28 02:24:07;;;;;;;4.43;1.70;;;;;;;;;;5043979;28;20213;-38
2022/07/28 02:26:36;;;;;;;1.50;1.40;;;;;;;;;;5033273;28;20323;-38
2022/07/28 02:29:05;;;;;;;2.03;1.80;;;;;;;;;;5032768;28;20210;-38
2022/07/28 02:31:34;;;;;;;3.13;1.43;;;;;;;;;;5023053;28;20218;-38
2022/07/28 02:34:04;;;;;;;3.13;1.77;;;;;;;;;;5050265;28;20307;-38
2022/07/28 02:36:32;;;;;;;2.13;1.70;;;;;;;;;;5027344;28;20240;-39
2022/07/28 02:39:02;;;;;;;2.53;1.77;;;;;;;;;;5048580;28;20214;-38
2022/07/28 02:41:32;;;;;;;1.87;1.60;;;;;;;;;;5052471;28;20210;-37
2022/07/28 02:44:01;;;;;;;1.93;1.60;;;;;;;;;;5047600;28;20209;-40
2022/07/28 02:46:33;;;;;;;3.03;1.90;;;;;;;;;;5026405;28;20222;-37
2022/07/28 02:49:03;;;;;;;1.90;1.80;;;;;;;;;;5049560;28;20205;-38
2022/07/28 02:51:31;;;;;;;3.27;1.73;;;;;;;;;;5028166;28;20206;-38
2022/07/28 02:53:58;;;;;;;2.50;1.50;;;;;;;;;;5031033;28;20212;-40
2022/07/28 02:56:26;;;;;;;3.30;1.50;;;;;;;;;;5032721;28;20235;-35
2022/07/28 02:58:55;;;;;;;1.50;1.37;;;;;;;;;;5031219;28;20254;-33
2022/07/28 03:01:25;;;;;;;1.67;1.50;;;;;;;;;;5016745;28;20206;-39
2022/07/28 03:03:53;;;;;;;2.47;1.53;;;;;;;;;;5039652;28;20205;-37
2022/07/28 03:06:21;;;;;;;2.07;1.47;;;;;;;;;;5026015;28;20209;-42
2022/07/28 03:08:49;;;;;;;2.67;1.60;;;;;;;;;;5041794;28;20277;-33
2022/07/28 03:11:16;;;;;;;1.53;1.43;;;;;;;;;;5031275;28;20202;-34
2022/07/28 03:13:44;;;;;;;3.67;1.77;;;;;;;;;;5022583;28;20673;-41
2022/07/28 03:16:12;;;;;;;1.50;1.40;;;;;;;;;;5011684;28;20219;-38
2022/07/28 03:18:40;;;;;;;1.33;1.23;;;;;;;;;;5033626;28;20290;-39
2022/07/28 03:21:07;;;;;;;1.77;1.30;;;;;;;;;;5029220;28;20210;-35
2022/07/28 03:23:37;;;;;;;1.67;1.47;;;;;;;;;;5030579;28;20268;-33
2022/07/28 03:26:06;;;;;;;2.67;1.50;;;;;;;;;;5052760;28;20226;-36
2022/07/28 03:28:34;;;;;;;1.80;1.70;;;;;;;;;;5041898;28;20553;-39
2022/07/28 03:31:04;;;;;;;2.63;1.90;;;;;;;;;;5026266;28;20261;-35
2022/07/28 03:33:33;;;;;;;3.27;1.63;;;;;;;;;;5050389;28;20209;-38
2022/07/28 03:36:01;;;;;;;1.97;1.57;;;;;;;;;;5034540;28;20234;-37
2022/07/28 03:38:30;;;;;;;1.63;1.53;;;;;;;;;;5042171;28;20253;-40
2022/07/28 03:40:58;;;;;;;4.27;1.20;;;;;;;;;;5053161;28;20208;-34
2022/07/28 03:43:26;;;;;;;2.83;1.90;;;;;;;;;;5040241;28;20214;-35
2022/07/28 03:45:53;;;;;;;1.67;1.57;;;;;;;;;;5024091;28;20646;-35
2022/07/28 03:48:23;;;;;;;1.60;1.50;;;;;;;;;;5034540;28;20229;-42
2022/07/28 03:50:51;;;;;;;1.47;1.37;;;;;;;;;;5032186;28;20210;-35
2022/07/28 03:53:20;;;;;;;1.73;1.63;;;;;;;;;;5033397;28;20198;-34
2022/07/28 03:55:49;;;;;;;2.80;1.90;;;;;;;;;;5051229;28;20267;-39
2022/07/28 03:58:16;;;;;;;1.90;1.70;;;;;;;;;;5039867;28;20290;-39
2022/07/28 04:00:53;;;;;;;2.50;1.67;;;;;;;;;;5036077;28;20288;-35
2022/07/28 04:03:21;;;;;;;2.00;1.80;;;;;;;;;;5027432;28;20309;-32
2022/07/28 04:05:48;;;;;;;1.70;1.60;;;;;;;;;;5026691;28;20226;-34
2022/07/28 04:08:16;;;;;;;1.97;1.63;;;;;;;;;;5049099;28;20232;-38
2022/07/28 04:10:44;;;;;;;1.80;1.70;;;;;;;;;;5050657;28;20206;-35
2022/07/28 04:13:11;;;;;;;1.83;1.73;;;;;;;;;;5055311;28;20300;-39
2022/07/28 04:15:38;;;;;;;2.43;1.60;;;;;;;;;;5037447;28;20214;-36
2022/07/28 04:18:06;;;;;;;1.67;1.57;;;;;;;;;;5036059;28;20248;-42
2022/07/28 04:20:33;;;;;;;3.40;1.80;;;;;;;;;;5030722;28;20224;-38
2022/07/28 04:23:00;;;;;;;2.93;1.73;;;;;;;;;;5038396;28;20210;-34
2022/07/28 04:25:29;;;;;;;3.83;1.63;;;;;;;;;;5027410;28;20202;-39
2022/07/28 04:27:56;;;;;;;5.23;2.17;;;;;;;;;;5031545;28;20218;-38
2022/07/28 04:30:24;;;;;;;3.70;2.00;;;;;;;;;;5026817;28;20217;-40
2022/07/28 04:32:52;;;;;;;3.73;2.20;;;;;;;;;;5045169;28;20297;-36
2022/07/28 04:35:21;;;;;;;2.33;1.97;;;;;;;;;;5020686;28;20649;-36
2022/07/28 04:37:49;;;;;;;1.80;1.63;;;;;;;;;;5036564;28;20238;-37
2022/07/28 04:40:16;;;;;;;5.53;1.77;;;;;;;;;;5054705;28;20212;-40
2022/07/28 04:42:45;;;;;;;2.90;1.73;;;;;;;;;;5047821;28;20366;-34
2022/07/28 04:45:12;;;;;;;1.90;1.73;;;;;;;;;;5036356;28;20297;-40
2022/07/28 04:47:40;;;;;;;2.50;1.90;;;;;;;;;;5045474;28;20225;-36
2022/07/28 04:50:09;;;;;;;2.27;1.97;;;;;;;;;;5034839;28;20234;-35
2022/07/28 04:52:37;;;;;;;2.63;2.00;;;;;;;;;;5018760;28;20240;-41
2022/07/28 04:55:04;;;;;;;3.87;2.00;;;;;;;;;;5026656;28;20238;-33
2022/07/28 04:57:48;;;;;;;4.07;2.00;;;;;;;;;;5028488;28;20234;-34
2022/07/28 05:00:16;;;;;;;1.80;1.70;;;;;;;;;;5037925;28;20206;-33
2022/07/28 05:02:44;;;;;;;3.20;2.07;;;;;;;;;;5034756;28;20210;-34
2022/07/28 05:05:11;;;;;;;2.57;1.80;;;;;;;;;;5030217;28;20209;-42
2022/07/28 05:07:38;;;;;;;3.53;1.90;;;;;;;;;;5037477;28;20285;-33
2022/07/28 05:10:32;;;;;;;2.30;2.20;;;;;;;;;;5045800;28;20272;-33
2022/07/28 05:13:04;;;;;;;2.33;2.13;;;;;;;;;;5054376;28;20199;-37
2022/07/28 05:15:31;;;;;;;3.23;2.30;;;;;;;;;;5025469;28;20233;-32
2022/07/28 05:17:58;;;;;;;2.83;1.87;;;;;;;;;;5040341;28;20229;-35
2022/07/28 05:20:26;;;;;;;3.03;1.93;;;;;;;;;;5029325;28;20216;-38
2022/07/28 05:22:53;;;;;;;3.50;1.90;;;;;;;;;;5040429;28;20217;-37
2022/07/28 05:25:21;;;;;;;2.13;1.93;;;;;;;;;;5053914;28;20255;-38
2022/07/28 05:27:49;;;;;;;3.53;1.97;;;;;;;;;;5054554;28;20256;-39
2022/07/28 05:30:17;;;;;;;2.90;1.93;;;;;;;;;;5037602;28;20202;-36
2022/07/28 05:35:13;;;;;;;2.30;1.87;;;;;;;;;;5019659;28;20221;-37
2022/07/28 05:37:40;;;;;;;2.20;2.00;;;;;;;;;;5028941;28;20238;-37
2022/07/28 05:40:10;;;;;;;2.00;1.70;;;;;;;;;;5051863;28;20216;-42
2022/07/28 05:42:38;;;;;;;3.03;2.37;;;;;;;;;;5051848;28;20213;-35
2022/07/28 05:45:07;;;;;;;2.93;2.47;;;;;;;;;;5031646;28;20207;-38
2022/07/28 05:47:42;;;;;;;2.27;2.07;;;;;;;;;;5044276;28;20214;-36
2022/07/28 05:50:10;;;;;;;4.20;1.90;;;;;;;;;;5032772;28;20225;-38
2022/07/28 05:52:37;;;;;;;2.33;2.13;;;;;;;;;;5039999;28;20225;-36
2022/07/28 05:55:04;;;;;;;3.00;2.03;;;;;;;;;;5041727;28;20205;-35
2022/07/28 05:57:31;;;;;;;2.90;2.30;;;;;;;;;;5031615;28;20234;-38
2022/07/28 05:59:58;;;;;;;2.60;2.40;;;;;;;;;;5028570;28;20215;-39
2022/07/28 06:02:25;;;;;;;2.60;2.40;;;;;;;;;;5017254;28;20206;-36
2022/07/28 06:04:54;;;;;;;3.40;2.10;;;;;;;;;;5043353;28;20229;-35
2022/07/28 06:07:21;;;;;;;2.53;2.20;;;;;;;;;;5035139;28;20229;-40
2022/07/28 06:09:48;;;;;;;2.25;1.95;;;;;;;;;;5043813;28;20205;-38
2022/07/28 06:12:15;;;;;;;3.50;2.23;;;;;;;;;;5050472;28;20215;-32
2022/07/28 06:14:42;;;;;;;4.13;2.40;;;;;;;;;;5031031;28;20205;-36
2022/07/28 06:17:09;;;;;;;4.57;2.50;;;;;;;;;;5046848;28;20236;-34
2022/07/28 06:19:36;;;;;;;3.80;2.80;;;;;;;;;;5033035;28;20205;-39
2022/07/28 06:22:05;;;;;;;2.80;2.60;;;;;;;;;;5024436;28;20206;-37
2022/07/28 06:24:32;;;;;;;3.08;2.72;;;;;;;;;;5044499;28;20227;-39
2022/07/28 06:27:01;;;;;;;4.03;2.50;;;;;;;;;;5050310;28;20214;-36
2022/07/28 06:29:28;;;;;;;5.07;3.13;;;;;;;;;;5036046;28;20214;-36
2022/07/28 06:31:55;;;;;;;4.00;2.90;;;;;;;;;;5033040;28;20202;-40
2022/07/28 06:34:23;;;;;;;4.45;2.80;;;;;;;;;;5034526;28;20213;-35
2022/07/28 06:36:51;;;;;;;5.72;3.28;;;;;;;;;;5027391;28;20265;-39
2022/07/28 06:39:19;;;;;;;3.03;2.70;;;;;;;;;;5037779;28;20457;-35
2022/07/28 06:41:47;;;;;;;4.25;2.97;;;;;;;;;;5030094;28;20202;-41
2022/07/28 06:44:14;;;;;;;3.95;2.92;;;;;;;;;;5024500;28;20211;-38
2022/07/28 06:46:41;;;;;;;3.55;3.13;;;;;;;;;;5026725;28;20232;-36
2022/07/28 06:49:08;;;;;;;4.57;3.05;;;;;;;;;;5041182;28;20237;-42
2022/07/28 06:51:35;;;;;;;4.85;3.15;;;;;;;;;;5016999;28;20212;-33
2022/07/28 06:54:02;;;;;;;4.07;3.10;;;;;;;;;;5036196;28;20207;-35
2022/07/28 06:56:31;;;;;;;4.72;2.97;;;;;;;;;;5029768;28;20225;-36
2022/07/28 06:58:58;;;;;;;4.90;3.28;;;;;;;;;;5027951;28;20228;-41
2022/07/28 07:01:25;;;;;;;4.63;3.60;;;;;;;;;;5026434;28;20209;-33
2022/07/28 07:03:52;;;;;;;4.22;3.42;;;;;;;;;;5039476;28;20243;-38
2022/07/28 07:06:19;;;;;;;5.32;3.40;;;;;;;;;;5028436;28;20238;-38
2022/07/28 07:08:47;;;;;;;3.60;3.30;;;;;;;;;;5032074;28;20202;-36
2022/07/28 07:11:14;;;;;;;4.50;3.47;;;;;;;;;;5052406;28;20202;-39
2022/07/28 07:13:42;;;;;;;4.15;3.10;;;;;;;;;;5053244;28;20268;-39
2022/07/28 07:16:09;;;;;;;4.63;3.83;;;;;;;;;;5030354;28;20220;-37
2022/07/28 07:18:37;;;;;;;4.18;3.33;;;;;;;;;;5033089;28;20217;-41
2022/07/28 07:21:04;;;;;;;5.47;3.50;;;;;;;;;;5035285;28;20199;-39
2022/07/28 07:23:31;;;;;;;6.55;3.13;;;;;;;;;;5042100;28;20214;-39
2022/07/28 07:25:58;;;;;;;4.95;3.65;;;;;;;;;;5035310;28;20205;-38
2022/07/28 07:28:25;;;;;;;7.20;3.63;;;;;;;;;;5035316;28;20226;-37
2022/07/28 07:30:54;;;;;;;8.73;3.22;;;;;;;;;;5026308;28;20215;-41
2022/07/28 07:33:21;;;;;;;3.95;3.25;;;;;;;;;;5032410;28;20210;-36
2022/07/28 07:35:48;;;;;;;6.47;2.97;;;;;;;;;;5041409;28;20206;-34
2022/07/28 07:38:15;;;;;;;3.08;2.80;;;;;;;;;;5043053;28;20225;-41
2022/07/28 07:40:42;;;;;;;3.92;3.42;;;;;;;;;;5052615;28;20218;-38
2022/07/28 07:43:09;;;;;;;4.55;3.42;;;;;;;;;;5045136;28;20207;-36
2022/07/28 07:45:37;;;;;;;4.40;3.50;;;;;;;;;;5020931;28;20211;-40
2022/07/28 07:48:05;;;;;;;5.53;3.50;;;;;;;;;;5037654;28;20229;-36
2022/07/28 07:50:33;;;;;;;3.50;3.20;;;;;;;;;;5039918;28;20211;-36
2022/07/28 07:53:00;;;;;;;4.88;3.78;;;;;;;;;;5038691;28;20292;-40
2022/07/28 07:55:27;;;;;;;3.63;3.33;;;;;;;;;;5052400;28;20214;-36
2022/07/28 07:57:54;;;;;;;4.63;3.55;;;;;;;;;;5045720;28;20230;-35
2022/07/28 08:00:21;;;;;;;5.00;3.55;;;;;;;;;;5028375;28;20301;-35
2022/07/28 08:02:49;;;;;;;4.15;3.60;;;;;;;;;;5038880;28;20202;-35
2022/07/28 08:05:17;;;;;;;5.07;3.53;;;;;;;;;;5035319;28;20207;-36
2022/07/28 08:07:44;;;;;;;6.30;3.78;;;;;;;;;;5036549;28;20222;-40
2022/07/28 08:10:12;;;;;;;4.47;3.22;;;;;;;;;;5019447;28;20274;-35
2022/07/28 08:12:39;;;;;;;5.38;3.90;;;;;;;;;;5043601;28;20212;-37
2022/07/28 08:15:07;;;;;;;4.35;3.95;;;;;;;;;;5036566;28;20207;-39
2022/07/28 08:17:34;;;;;;;4.65;4.15;;;;;;;;;;5033915;28;20233;-35
2022/07/28 08:20:02;;;;;;;5.30;3.67;;;;;;;;;;5028031;28;20211;-35
2022/07/28 08:22:31;;;;;;;5.28;3.85;;;;;;;;;;5041491;28;20224;-39
2022/07/28 08:25:00;;;;;;;5.43;3.65;;;;;;;;;;5038389;28;20213;-39
2022/07/28 08:40:20;;;;;;;7.97;4.25;;;;;;;;;;5089205;28;20205;-31
2022/07/28 08:42:50;;;;;;;6.75;3.70;;;;;;;;;;5094687;28;20215;-28
2022/07/28 08:45:18;;;;;;;5.30;4.03;;;;;;;;;;5094657;28;20204;-32
2022/07/28 08:47:46;;;;;;;4.18;3.78;;;;;;;;;;5067990;28;20253;-29
2022/07/28 08:50:13;;;;;;;5.13;4.00;;;;;;;;;;5067924;28;20209;-29
2022/07/28 08:52:41;;;;;;;4.07;3.55;;;;;;;;;;5080041;28;20215;-31
2022/07/28 08:55:09;;;;;;;6.28;3.85;;;;;;;;;;5071751;28;20202;-33
2022/07/28 08:57:40;;;;;;;4.03;3.67;;;;;;;;;;5066092;28;20317;-30
2022/07/28 09:00:08;;;;;;;4.95;3.58;;;;;;;;;;5062905;28;20200;-31
2022/07/28 09:02:37;;;;;;;4.95;3.65;;;;;;;;;;5073004;28;20204;-29
2022/07/28 09:05:04;;;;;;;4.28;3.30;;;;;;;;;;5078085;28;20205;-29
2022/07/28 09:07:32;;;;;;;4.15;3.75;;;;;;;;;;5067919;28;20225;-31
2022/07/28 09:10:01;;;;;;;4.57;3.50;;;;;;;;;;5081723;28;20205;-30
2022/07/28 09:12:28;;;;;;;5.00;3.80;;;;;;;;;;5062451;28;20212;-31
2022/07/28 09:14:57;;;;;;;4.20;3.75;;;;;;;;;;5057043;28;20209;-31
2022/07/28 09:17:24;;;;;;;3.83;3.53;;;;;;;;;;5088612;28;20243;-29
2022/07/28 09:19:51;;;;;;;7.35;3.55;;;;;;;;;;5081928;28;20200;-30
2022/07/28 09:22:18;;;;;;;4.78;3.60;;;;;;;;;;5066871;28;20284;-30
2022/07/28 09:24:45;;;;;;;4.18;3.53;;;;;;;;;;5082112;28;20201;-28
2022/07/28 09:27:13;;;;;;;4.28;3.35;;;;;;;;;;5078942;28;20230;-32
2022/07/28 09:29:41;;;;;;;4.90;3.35;;;;;;;;;;5072351;28;20210;-29
2022/07/28 09:32:10;;;;;;;4.47;3.55;;;;;;;;;;5085752;28;20207;-30
2022/07/28 09:34:41;;;;;;;4.32;3.53;;;;;;;;;;5074032;28;20205;-31
2022/07/28 09:37:08;;;;;;;4.07;3.67;;;;;;;;;;5076987;28;20233;-32
2022/07/28 09:39:37;;;;;;;4.60;3.35;;;;;;;;;;5081319;28;20227;-26
2022/07/28 09:42:04;;;;;;;3.92;3.35;;;;;;;;;;5079950;28;20216;-32
2022/07/28 09:44:31;;;;;;;5.47;3.72;;;;;;;;;;5067056;28;20204;-29
2022/07/28 09:46:58;;;;;;;5.07;3.28;;;;;;;;;;5079382;28;20225;-31
2022/07/28 09:49:41;;;;;;;5.15;3.45;;;;;;;;;;5073492;28;20212;-30
2022/07/28 09:52:10;;;;;;;5.22;3.10;;;;;;;;;;5065675;28;20201;-30
2022/07/28 09:54:37;;;;;;;4.03;3.30;;;;;;;;;;5085031;28;20196;-28
2022/07/28 09:57:05;;;;;;;7.03;4.40;;;;;;;;;;5093797;28;20259;-30
2022/07/28 09:59:41;;;;;;;4.72;3.38;;;;;;;;;;5079017;28;20217;-31
2022/07/28 10:02:09;;;;;;;7.13;3.60;;;;;;;;;;5084299;28;20197;-30
2022/07/28 10:04:37;;;;;;;3.65;3.30;;;;;;;;;;5072278;28;20283;-28
2022/07/28 10:07:05;;;;;;;4.38;3.22;;;;;;;;;;5065251;28;20240;-31
2022/07/28 10:09:34;;;;;;;6.03;3.60;;;;;;;;;;5072984;28;20213;-31
2022/07/28 10:12:17;;;;;;;3.28;3.08;;;;;;;;;;5071588;28;20208;-29
2022/07/28 10:14:46;;;;;;;4.38;3.28;;;;;;;;;;5064516;28;20216;-30
2022/07/28 10:17:22;;;;;;;3.80;3.50;;;;;;;;;;5086573;28;20242;-29
2022/07/28 10:19:50;;;;;;;3.53;3.20;;;;;;;;;;5089778;28;20204;-28
2022/07/28 10:22:18;;;;;;;3.40;3.13;;;;;;;;;;5073765;28;20209;-30
2022/07/28 10:24:48;;;;;;;4.53;3.50;;;;;;;;;;5076418;28;20339;-32
2022/07/28 10:27:16;;;;;;;4.10;3.50;;;;;;;;;;5072801;28;20280;-31
2022/07/28 10:29:45;;;;;;;3.72;3.25;;;;;;;;;;5065047;28;20201;-29
2022/07/28 10:32:12;;;;;;;5.47;2.90;;;;;;;;;;5070273;28;20209;-31
2022/07/28 10:34:40;;;;;;;4.50;3.00;;;;;;;;;;5071468;28;20205;-29
2022/07/28 10:37:11;;;;;;;4.30;2.63;;;;;;;;;;5073371;28;20258;-30
2022/07/28 10:39:40;;;;;;;3.53;3.08;;;;;;;;;;5080583;28;20221;-29
2022/07/28 10:42:11;;;;;;;3.10;2.90;;;;;;;;;;5072566;28;20205;-29
2022/07/28 10:44:38;;;;;;;4.07;3.42;;;;;;;;;;5075563;28;20438;-31
2022/07/28 10:47:08;;;;;;;4.78;3.10;;;;;;;;;;5075609;28;20235;-30
2022/07/28 10:49:36;;;;;;;3.10;2.90;;;;;;;;;;5086760;28;20200;-28
2022/07/28 10:52:03;;;;;;;3.65;3.35;;;;;;;;;;5069668;28;20216;-31
2022/07/28 10:54:32;;;;;;;3.45;3.15;;;;;;;;;;5072369;28;20208;-29
2022/07/28 10:57:01;;;;;;;3.17;2.78;;;;;;;;;;5072528;28;20234;-30
2022/07/28 10:59:41;;;;;;;5.82;2.80;;;;;;;;;;5067620;28;20251;-30
2022/07/28 11:02:08;;;;;;;2.75;2.45;;;;;;;;;;5067366;28;20201;-31
2022/07/28 11:05:06;;;;;;;4.43;2.95;;;;;;;;;;5072345;28;20272;-31
2022/07/28 11:07:38;;;;;;;5.80;3.08;;;;;;;;;;5058729;28;20225;-29
2022/07/28 11:10:16;;;;;;;5.57;3.15;;;;;;;;;;5082242;28;20629;-32
2022/07/28 11:12:47;;;;;;;4.60;3.13;;;;;;;;;;5084031;28;20227;-32
2022/07/28 11:15:27;;;;;;;4.88;3.42;;;;;;;;;;5064033;28;20223;-29
2022/07/28 11:18:00;;;;;;;4.65;3.63;;;;;;;;;;5090051;28;20238;-32
2022/07/28 11:20:46;;;;;;;3.53;3.00;;;;;;;;;;5076427;28;20216;-30
2022/07/28 11:23:31;;;;;;;3.35;3.00;;;;;;;;;;5083432;28;20203;-28
2022/07/28 11:26:13;;;;;;;6.05;2.85;;;;;;;;;;5071795;28;20211;-30
2022/07/28 11:28:55;;;;;;;5.63;2.80;;;;;;;;;;5062312;28;20205;-29
2022/07/28 11:31:55;;;;;;;5.43;3.40;;;;;;;;;;5071866;28;20219;-37
2022/07/28 11:34:25;;;;;;;3.30;2.70;;;;;;;;;;5328697;22;20599;-33
2022/07/28 11:37:05;;;;;;;4.70;2.85;;;;;;;;;;5043535;28;20225;-34
2022/07/28 11:39:33;;;;;;;3.67;3.08;;;;;;;;;;5052001;28;20228;-35
2022/07/28 11:42:01;;;;;;;5.68;3.42;;;;;;;;;;5051867;28;20205;-31
2022/07/28 11:44:29;;;;;;;3.90;2.92;;;;;;;;;;5050537;28;20205;-33
2022/07/28 11:47:15;;;;;;;4.60;3.20;;;;;;;;;;5046723;28;20235;-34
2022/07/28 11:49:43;;;;;;;4.93;3.33;;;;;;;;;;5051312;28;20201;-35
2022/07/28 11:52:20;;;;;;;3.13;2.85;;;;;;;;;;5054501;28;20210;-35
2022/07/28 11:54:55;;;;;;;3.85;3.03;;;;;;;;;;5056691;28;20239;-33
2022/07/28 11:57:24;;;;;;;5.88;2.90;;;;;;;;;;5056807;28;20263;-38
2022/07/28 11:59:53;;;;;;;3.20;2.90;;;;;;;;;;5055811;28;20228;-36
2022/07/28 12:02:22;;;;;;;3.42;2.80;;;;;;;;;;5048169;28;20217;-34
2022/07/28 12:05:12;;;;;;;3.55;3.20;;;;;;;;;;5049527;28;20223;-36
2022/07/28 12:07:40;;;;;;;4.25;2.65;;;;;;;;;;5058423;28;20263;-37
2022/07/28 12:10:28;;;;;;;3.95;2.90;;;;;;;;;;5057691;28;20640;-32
2022/07/28 12:12:56;;;;;;;6.57;3.40;;;;;;;;;;5053619;28;20654;-35
2022/07/28 12:15:23;;;;;;;2.95;2.70;;;;;;;;;;5051093;28;20206;-34
2022/07/28 12:17:51;;;;;;;7.05;3.03;;;;;;;;;;5056281;28;20231;-37
2022/07/28 12:20:19;;;;;;;7.00;3.20;;;;;;;;;;5053851;28;20229;-37
2022/07/28 12:22:56;;;;;;;5.03;2.92;;;;;;;;;;5055285;28;20208;-32
2022/07/28 12:25:23;;;;;;;4.20;2.70;;;;;;;;;;5060154;28;20255;-35
2022/07/28 12:27:50;;;;;;;3.05;2.70;;;;;;;;;;5076151;28;20243;-34
2022/07/28 12:30:27;;;;;;;4.32;2.80;;;;;;;;;;5054733;28;20209;-36
2022/07/28 12:32:56;;;;;;;4.07;2.97;;;;;;;;;;5055309;28;20203;-36
2022/07/28 12:35:24;;;;;;;4.05;3.25;;;;;;;;;;5052971;28;20213;-32
2022/07/28 12:37:51;;;;;;;3.50;3.20;;;;;;;;;;5050190;28;20576;-35
2022/07/28 12:40:19;;;;;;;3.70;3.13;;;;;;;;;;5047287;28;20225;-35
2022/07/28 12:42:48;;;;;;;5.63;2.72;;;;;;;;;;5055326;28;20635;-33
2022/07/28 12:45:15;;;;;;;4.90;2.63;;;;;;;;;;5051451;28;20278;-35
2022/07/28 12:47:43;;;;;;;3.58;2.83;;;;;;;;;;5050334;28;20225;-38
2022/07/28 12:50:13;;;;;;;3.25;2.90;;;;;;;;;;5051887;28;20207;-34
2022/07/28 12:52:40;;;;;;;3.67;2.67;;;;;;;;;;5050993;28;20205;-36
2022/07/28 12:55:20;;;;;;;4.43;2.50;;;;;;;;;;5054915;28;20201;-35
2022/07/28 12:57:50;;;;;;;2.78;2.58;;;;;;;;;;5050117;28;20265;-35
2022/07/28 13:00:19;;;;;;;4.63;2.80;;;;;;;;;;5045283;28;20233;-36
2022/07/28 13:02:46;;;;;;;3.30;3.00;;;;;;;;;;5054260;28;20209;-36
2022/07/28 13:05:28;;;;;;;4.40;2.80;;;;;;;;;;5050509;28;20209;-34
2022/07/28 13:07:58;;;;;;;9.13;3.33;;;;;;;;;;5051259;28;20237;-36
2022/07/28 13:10:28;;;;;;;6.20;2.45;;;;;;;;;;5053535;28;20215;-36
2022/07/28 13:13:05;;;;;;;3.28;2.80;;;;;;;;;;5053103;28;20259;-33
2022/07/28 13:15:33;;;;;;;4.45;2.70;;;;;;;;;;5035052;28;20206;-33
2022/07/28 13:18:00;;;;;;;2.20;2.10;;;;;;;;;;5051311;28;20313;-35
2022/07/28 13:20:33;;;;;;;3.03;2.63;;;;;;;;;;5049960;28;20279;-35
2022/07/28 13:23:00;;;;;;;5.57;2.83;;;;;;;;;;5050826;28;20205;-35
2022/07/28 13:25:27;;;;;;;2.90;2.70;;;;;;;;;;5066827;28;20207;-35
2022/07/28 13:27:54;;;;;;;4.13;2.17;;;;;;;;;;5052158;28;20226;-33
2022/07/28 13:30:22;;;;;;;3.42;2.60;;;;;;;;;;5053080;28;20294;-34
2022/07/28 13:32:49;;;;;;;4.47;2.88;;;;;;;;;;5052986;28;20214;-34
2022/07/28 13:35:16;;;;;;;7.97;3.13;;;;;;;;;;5056877;28;20214;-35
2022/07/28 13:37:45;;;;;;;6.05;2.67;;;;;;;;;;5053850;28;20252;-31
2022/07/28 13:40:12;;;;;;;25.55;4.88;;;;;;;;;;5050785;28;20221;-37
2022/07/28 13:42:40;;;;;;;13.35;2.80;;;;;;;;;;5051756;28;20209;-34
2022/07/28 13:45:07;;;;;;;4.60;3.00;;;;;;;;;;5041139;28;20214;-34
2022/07/28 13:47:34;;;;;;;11.40;2.85;;;;;;;;;;5050901;28;20674;-35
2022/07/28 13:50:02;;;;;;;3.22;2.53;;;;;;;;;;5045845;28;20233;-35
2022/07/28 13:52:29;;;;;;;3.00;2.70;;;;;;;;;;5043194;28;20292;-35
2022/07/28 13:54:57;;;;;;;2.72;2.50;;;;;;;;;;5051527;28;20212;-36
2022/07/28 13:57:26;;;;;;;2.83;2.58;;;;;;;;;;5052491;28;20225;-35
2022/07/28 13:59:53;;;;;;;2.83;2.38;;;;;;;;;;5048059;28;20229;-33
2022/07/28 14:02:20;;;;;;;3.20;2.25;;;;;;;;;;5053000;28;20205;-34
2022/07/28 14:04:47;;;;;;;3.13;2.67;;;;;;;;;;5052855;28;20202;-36
2022/07/28 14:07:14;;;;;;;2.50;2.30;;;;;;;;;;5052718;28;20226;-38
2022/07/28 14:09:41;;;;;;;4.70;2.67;;;;;;;;;;5053994;28;20205;-35
2022/07/28 14:12:10;;;;;;;2.85;2.50;;;;;;;;;;5054315;28;20202;-35
2022/07/28 14:14:37;;;;;;;2.92;2.70;;;;;;;;;;5044276;28;20201;-35
2022/07/28 14:17:05;;;;;;;3.28;2.80;;;;;;;;;;5047704;28;20226;-31
2022/07/28 14:19:32;;;;;;;5.18;2.78;;;;;;;;;;5052163;28;20222;-33
2022/07/28 14:21:59;;;;;;;6.25;2.97;;;;;;;;;;5047479;28;20208;-32
2022/07/28 14:24:26;;;;;;;7.47;2.85;;;;;;;;;;5050957;28;20206;-34
2022/07/28 14:26:53;;;;;;;3.88;2.55;;;;;;;;;;5062509;28;20266;-37
2022/07/28 14:29:22;;;;;;;3.17;2.80;;;;;;;;;;5050598;28;20210;-34
2022/07/28 14:31:49;;;;;;;3.63;2.80;;;;;;;;;;5044173;28;20274;-32
2022/07/28 14:34:17;;;;;;;4.80;2.45;;;;;;;;;;5044678;28;20201;-35
2022/07/28 14:36:44;;;;;;;3.30;3.00;;;;;;;;;;5051161;28;20231;-35
2022/07/28 14:39:11;;;;;;;13.43;3.45;;;;;;;;;;5059319;28;20205;-34
2022/07/28 14:41:38;;;;;;;8.63;3.25;;;;;;;;;;5052297;28;20548;-34
2022/07/28 14:44:05;;;;;;;3.22;2.85;;;;;;;;;;5052932;28;20214;-37
2022/07/28 14:46:34;;;;;;;7.95;2.72;;;;;;;;;;5043688;28;20228;-36
2022/07/28 14:49:01;;;;;;;6.07;3.00;;;;;;;;;;5050024;28;20205;-34
2022/07/28 14:51:28;;;;;;;5.03;2.67;;;;;;;;;;5044145;28;20308;-36
2022/07/28 14:53:56;;;;;;;2.88;2.45;;;;;;;;;;5051338;28;20213;-36
2022/07/28 14:56:23;;;;;;;4.53;2.30;;;;;;;;;;5052449;28;20205;-34
2022/07/28 14:58:51;;;;;;;7.93;2.78;;;;;;;;;;5052426;28;20218;-36
2022/07/28 15:01:18;;;;;;;5.15;2.60;;;;;;;;;;5043077;28;20226;-35
2022/07/28 15:03:46;;;;;;;2.95;2.67;;;;;;;;;;5047946;28;20216;-36
2022/07/28 15:06:13;;;;;;;3.58;2.92;;;;;;;;;;5043043;28;20194;-35
2022/07/28 15:08:40;;;;;;;5.47;2.72;;;;;;;;;;5059273;28;20205;-31
2022/07/28 15:11:08;;;;;;;2.58;2.38;;;;;;;;;;5052411;28;20197;-35